Time;durP1;ratioP1;P1;durP2;ratioP2;P2;SDS_P1;SDS_P2;PMS_P1;PMS_P2;Temp;Humidity;BMP_temperature;BMP_pressure;BME280_temperature;BME280_humidity;BME280_pressure;Samples;Min_cycle;Max_cycle;Signal;HPM_P1;HPM_P2
2023/10/27 00:01:12;;;;;;;41.28;22.33;;;9.00;99.90;;;;;;5091254;28;20483;-70
2023/10/27 00:03:37;;;;;;;40.95;21.92;;;9.00;99.90;;;;;;5092284;28;20040;-70
2023/10/27 00:06:03;;;;;;;40.13;20.13;;;9.00;99.90;;;;;;5092069;28;20087;-70
2023/10/27 00:08:29;;;;;;;37.78;21.27;;;9.00;99.90;;;;;;5091864;28;20093;-69
2023/10/27 00:10:55;;;;;;;41.03;20.90;;;9.30;99.90;;;;;;5091580;28;20440;-69
2023/10/27 00:13:21;;;;;;;36.75;19.70;;;9.00;99.90;;;;;;5091515;28;20062;-68
2023/10/27 00:15:47;;;;;;;36.97;20.60;;;9.00;99.90;;;;;;5091094;28;20428;-69
2023/10/27 00:18:13;;;;;;;39.40;20.88;;;9.00;99.90;;;;;;5091333;28;20086;-69
2023/10/27 00:20:39;;;;;;;42.08;21.50;;;9.00;99.90;;;;;;5091389;28;20074;-69
2023/10/27 00:23:04;;;;;;;39.22;20.77;;;9.50;99.90;;;;;;5091144;28;20071;-69
2023/10/27 00:25:30;;;;;;;40.05;20.33;;;9.00;99.90;;;;;;5076920;28;20044;-69
2023/10/27 00:27:55;;;;;;;36.55;20.67;;;9.30;99.90;;;;;;5090933;28;20052;-69
2023/10/27 00:30:21;;;;;;;38.92;21.02;;;9.10;99.90;;;;;;5091333;28;20056;-68
2023/10/27 00:32:47;;;;;;;38.33;21.88;;;9.00;99.90;;;;;;5091820;28;20044;-69
2023/10/27 00:35:13;;;;;;;38.85;20.02;;;9.20;99.90;;;;;;5090909;28;20058;-69
2023/10/27 00:37:40;;;;;;;38.38;19.92;;;9.20;99.90;;;;;;5090564;28;20044;-69
2023/10/27 00:40:07;;;;;;;40.05;20.52;;;9.40;99.90;;;;;;5091149;28;20044;-68
2023/10/27 00:42:33;;;;;;;41.00;20.90;;;9.20;99.90;;;;;;5090949;28;20044;-69
2023/10/27 00:44:59;;;;;;;39.22;21.13;;;9.10;99.90;;;;;;5090773;28;20143;-69
2023/10/27 00:47:25;;;;;;;39.85;20.83;;;9.10;99.90;;;;;;5091702;28;20123;-69
2023/10/27 00:49:52;;;;;;;38.28;19.58;;;9.20;99.90;;;;;;5094803;28;20093;-69
2023/10/27 00:52:20;;;;;;;36.50;19.60;;;9.10;99.90;;;;;;5095095;28;20052;-69
2023/10/27 00:54:48;;;;;;;39.75;20.52;;;9.10;99.90;;;;;;5094826;28;20097;-69
2023/10/27 00:57:17;;;;;;;40.80;20.15;;;9.20;99.90;;;;;;5095210;28;20044;-69
2023/10/27 00:59:43;;;;;;;38.88;19.95;;;9.50;99.90;;;;;;5095124;28;20071;-69
2023/10/27 01:02:09;;;;;;;36.67;20.20;;;9.20;99.90;;;;;;5094537;28;20051;-69
2023/10/27 01:04:39;;;;;;;38.72;20.15;;;9.20;99.90;;;;;;5095026;28;20109;-69
2023/10/27 01:07:04;;;;;;;39.92;19.83;;;9.20;99.90;;;;;;5095982;28;20044;-69
2023/10/27 01:09:30;;;;;;;38.53;20.33;;;9.20;99.90;;;;;;5094657;28;20063;-69
2023/10/27 01:11:56;;;;;;;36.75;18.73;;;9.20;99.90;;;;;;5094746;28;20055;-69
2023/10/27 01:14:22;;;;;;;33.30;19.65;;;9.20;99.90;;;;;;5095143;28;20059;-69
2023/10/27 01:16:51;;;;;;;36.42;19.65;;;9.20;99.90;;;;;;5095408;28;20040;-69
2023/10/27 01:19:17;;;;;;;37.13;19.13;;;9.20;99.90;;;;;;5094899;28;20075;-69
2023/10/27 01:21:42;;;;;;;38.78;19.67;;;9.30;99.90;;;;;;5094933;28;20411;-69
2023/10/27 01:24:08;;;;;;;40.10;20.15;;;10.30;99.90;;;;;;5094163;28;20117;-68
2023/10/27 01:26:34;;;;;;;36.75;20.02;;;8.20;99.90;;;;;;5094767;28;20144;-69
2023/10/27 01:29:02;;;;;;;39.05;19.27;;;9.20;99.90;;;;;;5094660;28;20055;-69
2023/10/27 01:31:29;;;;;;;38.80;19.02;;;9.20;99.90;;;;;;5094254;28;20054;-68
2023/10/27 01:33:54;;;;;;;36.00;18.67;;;9.20;99.90;;;;;;5094342;28;20044;-69
2023/10/27 01:36:20;;;;;;;37.55;17.80;;;9.30;99.90;;;;;;5094032;28;20531;-69
2023/10/27 01:38:46;;;;;;;38.75;18.52;;;9.20;99.90;;;;;;5094179;28;20044;-69
2023/10/27 01:41:11;;;;;;;36.05;18.98;;;9.20;99.90;;;;;;5094378;28;20040;-68
2023/10/27 01:43:40;;;;;;;38.42;18.20;;;9.20;99.90;;;;;;5095829;28;20048;-69
2023/10/27 01:46:05;;;;;;;34.67;18.00;;;9.20;99.90;;;;;;5093159;28;20055;-69
2023/10/27 01:48:31;;;;;;;31.73;16.92;;;9.30;99.90;;;;;;5094212;28;20051;-69
2023/10/27 01:50:57;;;;;;;32.55;17.35;;;9.20;99.90;;;;;;5093359;28;20088;-69
2023/10/27 01:53:22;;;;;;;31.23;17.10;;;9.20;99.90;;;;;;5094449;28;20090;-68
2023/10/27 01:55:48;;;;;;;32.97;16.70;;;9.10;99.90;;;;;;5094167;28;20040;-68
2023/10/27 01:58:14;;;;;;;31.45;16.60;;;9.40;99.90;;;;;;5093907;28;20044;-69
2023/10/27 02:00:39;;;;;;;29.58;15.70;;;9.30;99.90;;;;;;5093894;28;20051;-68
2023/10/27 02:03:05;;;;;;;;;;;9.20;99.90;;;;;;5094491;28;20126;-69
2023/10/27 02:05:31;;;;;;;33.10;15.57;;;9.20;99.90;;;;;;5093716;28;20012;-69
2023/10/27 02:07:58;;;;;;;27.80;14.40;;;9.20;99.90;;;;;;5093988;28;20130;-69
2023/10/27 02:10:24;;;;;;;29.85;14.80;;;9.20;99.90;;;;;;5094381;28;20125;-69
2023/10/27 02:12:50;;;;;;;26.20;14.93;;;9.20;99.90;;;;;;5093353;28;20484;-69
2023/10/27 02:15:16;;;;;;;26.17;14.02;;;9.20;99.90;;;;;;5093336;28;20067;-70
2023/10/27 02:17:41;;;;;;;25.48;13.77;;;9.20;99.90;;;;;;5093962;28;20044;-70
2023/10/27 02:20:07;;;;;;;27.65;15.05;;;9.20;99.90;;;;;;5093048;28;20048;-70
2023/10/27 02:22:33;;;;;;;25.70;14.90;;;9.20;99.90;;;;;;5093860;28;20439;-70
2023/10/27 02:24:58;;;;;;;25.95;13.77;;;9.20;99.90;;;;;;5093585;28;20049;-70
2023/10/27 02:27:24;;;;;;;25.80;14.10;;;9.20;99.90;;;;;;5092857;28;20075;-70
2023/10/27 02:29:50;;;;;;;26.33;14.02;;;10.40;99.90;;;;;;5093168;28;20047;-70
2023/10/27 02:32:15;;;;;;;27.42;14.45;;;9.20;99.90;;;;;;5093742;28;20055;-70
2023/10/27 02:34:44;;;;;;;;;;;9.20;99.90;;;;;;5093552;28;20047;-70
2023/10/27 02:37:09;;;;;;;26.95;14.45;;;9.20;99.90;;;;;;5092751;28;19920;-70
2023/10/27 02:39:35;;;;;;;24.77;13.23;;;9.70;99.90;;;;;;5094791;28;20054;-69
2023/10/27 02:42:00;;;;;;;;;;;9.40;99.90;;;;;;5093638;28;20044;-70
2023/10/27 02:44:26;;;;;;;25.48;13.52;;;9.10;99.90;;;;;;5093356;28;20291;-70
2023/10/27 02:46:52;;;;;;;26.05;13.32;;;9.10;99.90;;;;;;5094013;28;20129;-70
2023/10/27 02:49:18;;;;;;;25.73;13.60;;;9.10;99.90;;;;;;5092993;28;20052;-70
2023/10/27 02:51:43;;;;;;;;;;;9.30;99.90;;;;;;5093627;28;20059;-70
2023/10/27 02:54:10;;;;;;;24.17;12.63;;;9.10;99.90;;;;;;5092833;28;19979;-70
2023/10/27 02:56:35;;;;;;;22.55;13.02;;;9.00;99.90;;;;;;5090484;28;20048;-70
2023/10/27 02:59:01;;;;;;;22.05;12.75;;;9.00;99.90;;;;;;5093199;28;20399;-70
2023/10/27 03:01:26;;;;;;;24.88;12.75;;;9.10;99.90;;;;;;5092875;28;20099;-70
2023/10/27 03:03:52;;;;;;;22.20;11.95;;;9.00;99.90;;;;;;5093692;28;20119;-70
2023/10/27 03:06:18;;;;;;;24.58;13.48;;;9.00;99.90;;;;;;5093236;28;20117;-70
2023/10/27 03:08:44;;;;;;;24.70;12.48;;;9.10;99.90;;;;;;5092423;28;20052;-70
2023/10/27 03:11:10;;;;;;;22.70;11.88;;;9.10;99.90;;;;;;5092072;28;20052;-70
2023/10/27 03:13:39;;;;;;;22.85;12.07;;;9.10;99.90;;;;;;5093836;28;20044;-70
2023/10/27 03:16:05;;;;;;;23.00;12.82;;;9.60;99.90;;;;;;5092282;28;20079;-70
2023/10/27 03:18:31;;;;;;;26.02;12.45;;;9.10;99.90;;;;;;5091778;28;20102;-70
2023/10/27 03:21:03;;;;;;;24.35;12.75;;;9.10;99.90;;;;;;5092854;28;20050;-70
2023/10/27 03:23:29;;;;;;;25.80;11.60;;;9.30;99.90;;;;;;5092206;28;20521;-69
2023/10/27 03:25:55;;;;;;;21.40;12.25;;;9.10;99.90;;;;;;5091501;28;20040;-70
2023/10/27 03:28:21;;;;;;;22.25;12.27;;;9.20;99.90;;;;;;5092565;28;20040;-70
2023/10/27 03:30:48;;;;;;;21.20;12.25;;;9.10;99.90;;;;;;5091582;28;20407;-70
2023/10/27 03:33:14;;;;;;;22.52;12.38;;;9.10;99.90;;;;;;5089126;28;20049;-70
2023/10/27 03:35:42;;;;;;;24.85;13.82;;;9.20;99.90;;;;;;5090147;28;20044;-70
2023/10/27 03:38:09;;;;;;;23.55;13.23;;;9.10;99.90;;;;;;5089894;28;20036;-70
2023/10/27 03:40:39;;;;;;;23.75;13.48;;;9.10;99.90;;;;;;5084739;28;20052;-70
2023/10/27 03:43:05;;;;;;;24.35;13.10;;;9.20;99.90;;;;;;5091752;28;20044;-70
2023/10/27 03:45:31;;;;;;;22.80;13.10;;;9.20;99.90;;;;;;5090661;28;20044;-70
2023/10/27 03:47:56;;;;;;;22.92;12.93;;;9.20;99.90;;;;;;5092007;28;20040;-70
2023/10/27 03:50:22;;;;;;;20.90;12.25;;;9.10;99.90;;;;;;5092241;28;20132;-70
2023/10/27 03:52:47;;;;;;;;;;;9.10;99.90;;;;;;5091844;28;20040;-70
2023/10/27 03:55:13;;;;;;;21.42;12.18;;;9.10;99.90;;;;;;5091415;28;19920;-70
2023/10/27 03:57:40;;;;;;;22.52;12.85;;;9.10;99.90;;;;;;5091212;28;20043;-70
2023/10/27 04:00:07;;;;;;;20.08;11.95;;;9.60;99.90;;;;;;5091898;28;20052;-70
2023/10/27 04:02:36;;;;;;;22.30;13.05;;;9.10;99.90;;;;;;5090613;28;20138;-70
2023/10/27 04:05:04;;;;;;;23.45;12.45;;;9.40;99.90;;;;;;5090387;28;20036;-70
2023/10/27 04:07:29;;;;;;;23.00;12.57;;;9.20;99.90;;;;;;5089910;28;21424;-70
2023/10/27 04:09:55;;;;;;;23.63;12.63;;;9.20;99.90;;;;;;5089837;28;20096;-70
2023/10/27 04:12:21;;;;;;;22.63;12.98;;;9.30;99.90;;;;;;5089494;28;20401;-70
2023/10/27 04:14:48;;;;;;;24.30;12.85;;;9.30;99.90;;;;;;5089105;28;20071;-70
2023/10/27 04:17:14;;;;;;;23.60;12.65;;;9.20;99.90;;;;;;5089989;28;20438;-70
2023/10/27 04:19:40;;;;;;;25.38;13.25;;;9.30;99.90;;;;;;5087234;28;20074;-70
2023/10/27 04:22:05;;;;;;;24.75;12.35;;;9.10;99.90;;;;;;5089330;28;20040;-70
2023/10/27 04:24:31;;;;;;;20.42;11.75;;;9.10;99.90;;;;;;5089645;28;20503;-70
2023/10/27 04:26:57;;;;;;;21.77;11.50;;;9.20;99.90;;;;;;5090855;28;20044;-69
2023/10/27 04:29:22;;;;;;;23.00;13.10;;;9.20;99.90;;;;;;5091282;28;20182;-70
2023/10/27 04:31:48;;;;;;;23.05;12.70;;;9.20;99.90;;;;;;5091084;28;20043;-70
2023/10/27 04:34:14;;;;;;;;;;;9.20;99.90;;;;;;5091301;28;20504;-70
2023/10/27 04:36:40;;;;;;;23.35;12.07;;;9.20;99.90;;;;;;5091035;28;19920;-70
2023/10/27 04:39:06;;;;;;;22.42;11.88;;;9.30;99.90;;;;;;5091569;28;20055;-70
2023/10/27 04:41:31;;;;;;;21.75;12.35;;;9.20;99.90;;;;;;5089609;28;20032;-70
2023/10/27 04:43:57;;;;;;;22.40;11.63;;;9.20;99.90;;;;;;5091527;28;20079;-70
2023/10/27 04:46:23;;;;;;;23.05;11.80;;;9.30;99.90;;;;;;5091768;28;20044;-69
2023/10/27 04:48:48;;;;;;;21.95;11.68;;;9.20;99.90;;;;;;5090373;28;20063;-70
2023/10/27 04:51:14;;;;;;;20.83;11.90;;;9.20;99.90;;;;;;5091172;28;20059;-70
2023/10/27 04:53:40;;;;;;;20.08;11.43;;;9.20;99.90;;;;;;5091125;28;20101;-70
2023/10/27 04:56:06;;;;;;;;;;;9.20;99.90;;;;;;5091057;28;20131;-70
2023/10/27 04:58:32;;;;;;;21.13;11.82;;;9.20;99.90;;;;;;5091244;28;19998;-70
2023/10/27 05:00:57;;;;;;;19.63;10.65;;;9.20;99.90;;;;;;5090774;28;20123;-70
2023/10/27 05:03:23;;;;;;;;;;;9.20;99.90;;;;;;5091350;28;20044;-70
2023/10/27 05:05:48;;;;;;;20.13;11.07;;;9.20;99.90;;;;;;5090937;28;19920;-70
2023/10/27 05:08:14;;;;;;;21.52;11.73;;;9.20;99.90;;;;;;5090953;28;20058;-70
2023/10/27 05:10:40;;;;;;;21.33;11.50;;;9.60;99.90;;;;;;5090811;28;20070;-70
2023/10/27 05:13:09;;;;;;;23.10;12.15;;;9.20;99.90;;;;;;5090897;28;20043;-70
2023/10/27 05:15:37;;;;;;;20.00;11.65;;;9.10;99.90;;;;;;5089268;28;20567;-70
2023/10/27 05:18:05;;;;;;;21.35;11.70;;;9.10;99.90;;;;;;5090412;28;20048;-70
2023/10/27 05:20:36;;;;;;;21.08;11.00;;;9.10;99.90;;;;;;5090568;28;20040;-70
2023/10/27 05:23:02;;;;;;;18.73;11.27;;;9.10;99.90;;;;;;5090570;28;20051;-70
2023/10/27 05:25:27;;;;;;;20.40;10.85;;;9.20;99.90;;;;;;5092064;28;20044;-70
2023/10/27 05:27:53;;;;;;;19.63;11.00;;;9.40;99.90;;;;;;5090714;28;20188;-70
2023/10/27 05:30:18;;;;;;;19.73;10.68;;;9.00;99.90;;;;;;5091601;28;20040;-70
2023/10/27 05:32:44;;;;;;;18.30;9.65;;;9.00;99.90;;;;;;5090734;28;20046;-70
2023/10/27 05:35:10;;;;;;;18.48;10.88;;;9.00;99.90;;;;;;5092714;28;20052;-69
2023/10/27 05:37:35;;;;;;;18.85;10.40;;;9.00;99.90;;;;;;5093263;28;20048;-70
2023/10/27 05:40:01;;;;;;;20.90;10.40;;;9.00;99.90;;;;;;5095097;28;20036;-70
2023/10/27 05:42:26;;;;;;;18.80;10.63;;;8.90;99.90;;;;;;5094588;28;20078;-70
2023/10/27 05:44:52;;;;;;;20.25;10.05;;;8.90;99.90;;;;;;5093540;28;20039;-70
2023/10/27 05:47:19;;;;;;;20.27;10.60;;;9.50;99.90;;;;;;5094140;28;20071;-70
2023/10/27 05:49:45;;;;;;;20.02;9.85;;;8.90;99.90;;;;;;5093405;28;20052;-71
2023/10/27 05:52:10;;;;;;;17.67;10.32;;;9.00;99.90;;;;;;5093747;28;20499;-70
2023/10/27 05:54:36;;;;;;;18.80;10.55;;;8.90;99.90;;;;;;5095371;28;20075;-70
2023/10/27 05:57:03;;;;;;;20.05;10.70;;;8.90;99.90;;;;;;5093896;28;20071;-70
2023/10/27 05:59:29;;;;;;;19.67;10.70;;;8.90;99.90;;;;;;5092988;28;20074;-70
2023/10/27 06:01:54;;;;;;;17.27;10.00;;;8.90;99.90;;;;;;5093507;28;20123;-70
2023/10/27 06:04:23;;;;;;;21.20;11.13;;;9.20;99.90;;;;;;5092642;28;20123;-70
2023/10/27 06:06:49;;;;;;;19.27;10.82;;;8.90;99.90;;;;;;5092637;28;20392;-70
2023/10/27 06:09:17;;;;;;;19.38;10.75;;;8.90;99.90;;;;;;5092123;28;20055;-71
2023/10/27 06:11:43;;;;;;;21.10;10.82;;;8.80;99.90;;;;;;5092373;28;20105;-70
2023/10/27 06:14:08;;;;;;;19.08;10.73;;;8.80;99.90;;;;;;5088991;28;20048;-70
2023/10/27 06:16:34;;;;;;;19.63;9.95;;;8.80;99.90;;;;;;5086616;28;20037;-70
2023/10/27 06:19:00;;;;;;;;;;;8.80;99.90;;;;;;5091350;28;20097;-71
2023/10/27 06:21:28;;;;;;;17.92;9.68;;;9.00;99.90;;;;;;5091772;28;19920;-71
2023/10/27 06:23:54;;;;;;;19.50;10.15;;;8.90;99.90;;;;;;5091703;28;20036;-71
2023/10/27 06:26:19;;;;;;;20.50;11.25;;;8.70;99.90;;;;;;5091628;28;20483;-71
2023/10/27 06:28:46;;;;;;;19.60;10.25;;;8.70;99.90;;;;;;5088620;28;20039;-70
2023/10/27 06:31:12;;;;;;;17.13;9.82;;;8.60;99.90;;;;;;5093620;28;20056;-70
2023/10/27 06:33:37;;;;;;;18.20;10.35;;;8.60;99.90;;;;;;5092089;28;20507;-70
2023/10/27 06:36:04;;;;;;;20.38;9.85;;;8.60;99.90;;;;;;5093901;28;20038;-71
2023/10/27 06:38:30;;;;;;;19.58;11.10;;;8.60;99.90;;;;;;5094368;28;20441;-70
2023/10/27 06:40:56;;;;;;;17.83;9.82;;;8.60;99.90;;;;;;5085856;28;20044;-70
2023/10/27 06:43:22;;;;;;;20.15;10.85;;;8.50;99.90;;;;;;5090106;28;20101;-70
2023/10/27 06:45:47;;;;;;;22.27;11.43;;;8.50;99.90;;;;;;5083424;28;20040;-70
2023/10/27 06:48:13;;;;;;;21.42;10.80;;;8.50;99.90;;;;;;5083377;28;20133;-70
2023/10/27 06:50:40;;;;;;;20.27;10.93;;;8.50;99.90;;;;;;5072797;28;20053;-70
2023/10/27 06:53:06;;;;;;;19.88;11.48;;;8.50;99.90;;;;;;5075552;28;20075;-71
2023/10/27 06:55:32;;;;;;;19.85;11.20;;;8.50;99.90;;;;;;5088697;28;20040;-71
2023/10/27 06:58:00;;;;;;;19.60;10.52;;;8.50;99.90;;;;;;5092844;28;20403;-71
2023/10/27 07:00:26;;;;;;;20.20;10.60;;;8.40;99.90;;;;;;5093094;28;20048;-70
2023/10/27 07:02:51;;;;;;;18.55;11.18;;;8.70;99.90;;;;;;5092953;28;20093;-72
2023/10/27 07:05:18;;;;;;;21.50;11.30;;;8.60;99.90;;;;;;5087967;28;20084;-76
2023/10/27 07:07:44;;;;;;;19.17;9.85;;;8.50;99.90;;;;;;5084661;28;20033;-72
2023/10/27 07:10:10;;;;;;;19.02;11.68;;;8.50;99.90;;;;;;5074094;28;20529;-70
2023/10/27 07:12:36;;;;;;;19.88;10.85;;;8.50;99.90;;;;;;5074413;28;20074;-72
2023/10/27 07:15:02;;;;;;;18.98;10.65;;;8.60;99.90;;;;;;5071683;28;20068;-77
2023/10/27 07:17:28;;;;;;;19.85;10.95;;;8.60;99.90;;;;;;5072113;28;20087;-73
2023/10/27 07:19:54;;;;;;;18.10;9.73;;;8.60;99.90;;;;;;5071886;28;20567;-73
2023/10/27 07:22:19;;;;;;;;;;;8.60;99.90;;;;;;5072195;28;20032;-72
2023/10/27 07:24:46;;;;;;;18.50;10.43;;;8.70;99.90;;;;;;5073639;28;19921;-71
2023/10/27 07:27:12;;;;;;;18.48;10.60;;;8.80;99.90;;;;;;5076373;28;20097;-76
2023/10/27 07:29:37;;;;;;;16.08;9.52;;;8.70;99.90;;;;;;5073442;28;20799;-72
2023/10/27 07:32:03;;;;;;;18.77;10.35;;;9.00;99.90;;;;;;5088873;28;20060;-73
2023/10/27 07:34:29;;;;;;;18.48;10.27;;;8.80;99.90;;;;;;5075906;28;20044;-69
2023/10/27 07:36:55;;;;;;;19.40;10.30;;;8.80;99.90;;;;;;5076608;28;20066;-69
2023/10/27 07:39:22;;;;;;;18.23;10.73;;;8.90;99.90;;;;;;5081734;28;20040;-72
2023/10/27 07:41:51;;;;;;;18.73;10.13;;;8.90;99.90;;;;;;5091112;28;20048;-69
2023/10/27 07:44:17;;;;;;;18.55;10.63;;;8.90;99.90;;;;;;5091073;28;20047;-67
2023/10/27 07:46:46;;;;;;;18.85;10.35;;;9.00;99.90;;;;;;5091596;28;20048;-69
2023/10/27 07:49:12;;;;;;;19.75;10.15;;;9.10;99.90;;;;;;5091593;28;20632;-70
2023/10/27 07:51:38;;;;;;;17.10;9.88;;;9.10;99.90;;;;;;5091900;28;20044;-69
2023/10/27 07:54:04;;;;;;;18.55;10.35;;;9.30;99.90;;;;;;5093129;28;20126;-69
2023/10/27 07:56:32;;;;;;;17.63;10.30;;;9.30;99.90;;;;;;5091381;28;20550;-70
2023/10/27 07:58:59;;;;;;;19.70;10.95;;;9.30;99.90;;;;;;5076495;28;20510;-71
2023/10/27 08:01:24;;;;;;;17.60;10.50;;;9.40;99.90;;;;;;5091670;28;20044;-70
2023/10/27 08:03:50;;;;;;;18.27;10.38;;;9.40;99.90;;;;;;5090485;28;20057;-71
2023/10/27 08:06:16;;;;;;;16.88;10.60;;;9.70;99.90;;;;;;5091577;28;20040;-72
2023/10/27 08:08:42;;;;;;;16.88;10.15;;;9.60;99.90;;;;;;5091583;28;20040;-75
2023/10/27 08:11:21;;;;;;;18.60;10.75;;;9.60;99.90;;;;;;5092141;28;20040;-69
2023/10/27 08:13:47;;;;;;;18.00;10.57;;;9.70;99.90;;;;;;5088545;28;20046;-72
2023/10/27 08:16:13;;;;;;;19.90;10.75;;;9.70;99.90;;;;;;5090776;28;20138;-71
2023/10/27 08:18:39;;;;;;;16.15;9.82;;;9.80;99.90;;;;;;5090283;28;20052;-76
2023/10/27 08:21:05;;;;;;;16.20;9.40;;;9.80;99.90;;;;;;5090281;28;20435;-74
2023/10/27 08:23:30;;;;;;;16.15;9.70;;;10.20;99.90;;;;;;5089824;28;20079;-80
2023/10/27 08:25:56;;;;;;;15.52;9.68;;;10.70;99.90;;;;;;5090069;28;20082;-77
2023/10/27 08:28:22;;;;;;;14.98;9.50;;;10.50;99.90;;;;;;5079398;28;20115;-79
2023/10/27 08:30:48;;;;;;;22.15;14.27;;;10.00;99.90;;;;;;5090994;28;20484;-77
2023/10/27 08:33:17;;;;;;;15.25;10.40;;;10.00;99.90;;;;;;5083695;28;20048;-73
2023/10/27 08:35:42;;;;;;;16.63;9.95;;;10.10;99.90;;;;;;5086472;28;20480;-77
2023/10/27 08:38:08;;;;;;;18.70;12.00;;;10.10;99.90;;;;;;5076293;28;20085;-73
2023/10/27 08:40:35;;;;;;;17.15;10.30;;;10.40;99.90;;;;;;5089833;28;20097;-77
2023/10/27 08:43:03;;;;;;;18.40;10.55;;;10.70;99.90;;;;;;5091080;28;20071;-75
2023/10/27 08:45:32;;;;;;;20.92;14.00;;;10.30;99.90;;;;;;5089968;28;20052;-81
2023/10/27 08:48:00;;;;;;;16.17;11.23;;;10.40;99.90;;;;;;5089735;28;20483;-93
2023/10/27 08:50:27;;;;;;;17.02;12.45;;;11.10;99.90;;;;;;5090702;28;20055;-76
2023/10/27 08:52:52;;;;;;;18.42;12.32;;;11.10;99.90;;;;;;5079446;28;20045;-76
2023/10/27 08:55:20;;;;;;;16.20;10.68;;;11.40;99.90;;;;;;5070217;28;20045;-75
2023/10/27 08:57:46;;;;;;;16.38;10.85;;;10.90;99.90;;;;;;5070454;28;20056;-75
2023/10/27 09:00:12;;;;;;;17.08;10.23;;;11.00;99.90;;;;;;5070428;28;20040;-77
2023/10/27 09:02:38;;;;;;;13.57;9.82;;;11.20;99.90;;;;;;5070011;28;20041;-82
2023/10/27 09:05:06;;;;;;;14.68;8.88;;;11.50;99.90;;;;;;5070372;28;20127;-75
2023/10/27 09:07:33;;;;;;;14.60;9.48;;;11.20;99.90;;;;;;5069648;28;20041;-75
2023/10/27 09:10:04;;;;;;;15.40;9.50;;;11.20;99.90;;;;;;5084452;28;20056;-74
2023/10/27 09:12:31;;;;;;;14.98;9.32;;;11.20;99.90;;;;;;5093517;28;20124;-74
2023/10/27 09:15:04;;;;;;;13.25;8.85;;;11.60;99.90;;;;;;5094327;28;20074;-72
2023/10/27 09:17:30;;;;;;;13.65;8.85;;;11.40;99.90;;;;;;5094470;28;20044;-75
2023/10/27 09:20:06;;;;;;;14.98;9.52;;;11.50;99.90;;;;;;5094577;28;20372;-77
2023/10/27 09:22:32;;;;;;;14.40;8.65;;;11.60;99.90;;;;;;5094082;28;20044;-74
2023/10/27 09:25:19;;;;;;;14.02;8.77;;;11.80;99.90;;;;;;5094652;28;20048;-76
2023/10/27 09:27:45;;;;;;;12.65;8.38;;;11.80;99.90;;;;;;5080860;28;20093;-76
2023/10/27 09:30:25;;;;;;;13.77;9.05;;;11.90;99.90;;;;;;5089252;28;20127;-76
2023/10/27 09:32:51;;;;;;;11.93;8.43;;;12.10;99.90;;;;;;5080449;28;20052;-77
2023/10/27 09:35:18;;;;;;;15.27;8.57;;;12.20;99.90;;;;;;5093522;28;20395;-75
2023/10/27 09:37:46;;;;;;;13.57;8.90;;;12.30;99.90;;;;;;5094604;28;20040;-76
2023/10/27 09:40:13;;;;;;;12.07;7.88;;;12.40;99.90;;;;;;5094599;28;20109;-76
2023/10/27 09:42:39;;;;;;;12.57;8.45;;;12.40;99.90;;;;;;5093421;28;20048;-74
2023/10/27 09:45:11;;;;;;;12.40;8.52;;;12.50;99.90;;;;;;5073636;28;20507;-79
2023/10/27 09:47:46;;;;;;;12.50;8.88;;;12.50;99.90;;;;;;5082913;28;20032;-79
2023/10/27 09:50:24;;;;;;;12.07;8.35;;;12.60;99.90;;;;;;5092595;28;20052;-80
2023/10/27 09:52:50;;;;;;;12.70;8.55;;;12.60;99.90;;;;;;5094119;28;20050;-88
2023/10/27 09:55:19;;;;;;;11.65;8.00;;;12.70;99.90;;;;;;5094092;28;20056;-78
2023/10/27 09:57:45;;;;;;;11.25;7.82;;;12.80;99.90;;;;;;5089242;28;20032;-78
2023/10/27 10:00:27;;;;;;;12.80;8.63;;;13.10;99.90;;;;;;5093935;28;20157;-78
2023/10/27 10:02:54;;;;;;;12.55;8.65;;;12.70;99.90;;;;;;5079735;28;20048;-80
2023/10/27 10:05:20;;;;;;;11.63;7.80;;;12.60;99.90;;;;;;5072601;28;20044;-79
2023/10/27 10:07:52;;;;;;;13.52;8.88;;;12.60;99.90;;;;;;5073404;28;20047;-79
2023/10/27 10:10:34;;;;;;;12.07;8.52;;;12.50;99.90;;;;;;5073884;28;20056;-78
2023/10/27 10:13:07;;;;;;;12.77;8.63;;;12.60;99.90;;;;;;5091012;28;20036;-78
2023/10/27 10:15:38;;;;;;;11.25;8.32;;;12.30;99.90;;;;;;5093128;28;20070;-79
2023/10/27 10:18:28;;;;;;;11.57;7.88;;;12.50;99.90;;;;;;5093288;28;20059;-85
2023/10/27 10:20:58;;;;;;;13.23;8.65;;;12.20;99.90;;;;;;5078972;28;20143;-86
2023/10/27 10:23:46;;;;;;;11.68;8.05;;;12.60;99.90;;;;;;5074025;28;20442;-90
2023/10/27 10:26:12;;;;;;;13.23;8.38;;;12.20;99.90;;;;;;5062792;28;20052;-78
2023/10/27 10:28:39;;;;;;;12.75;8.57;;;12.20;99.90;;;;;;5073320;28;20044;-89
2023/10/27 10:31:07;;;;;;;15.35;8.68;;;12.20;99.90;;;;;;5072544;28;20094;-75
2023/10/27 10:33:34;;;;;;;11.90;8.15;;;12.60;99.90;;;;;;5072111;28;20134;-76
2023/10/27 10:36:27;;;;;;;12.65;8.15;;;12.30;99.90;;;;;;5073205;28;20044;-73
2023/10/27 10:39:00;;;;;;;12.50;8.32;;;12.10;99.90;;;;;;5075536;28;20460;-73
2023/10/27 10:41:54;;;;;;;11.90;8.48;;;12.00;99.90;;;;;;5093106;28;20051;-74
2023/10/27 10:44:25;;;;;;;13.20;8.55;;;11.90;99.90;;;;;;5090159;28;20097;-74
2023/10/27 10:46:51;;;;;;;12.63;8.52;;;11.90;99.90;;;;;;5072143;28;20082;-72
2023/10/27 10:49:25;;;;;;;13.18;9.23;;;11.70;99.90;;;;;;5072725;28;20050;-70
2023/10/27 10:51:55;;;;;;;12.02;8.20;;;11.80;99.90;;;;;;5071710;28;20140;-71
2023/10/27 10:54:31;;;;;;;13.30;8.70;;;11.60;99.90;;;;;;5078604;28;20450;-74
2023/10/27 10:57:08;;;;;;;12.65;8.32;;;11.70;99.90;;;;;;5088018;28;20036;-71
2023/10/27 10:59:35;;;;;;;12.13;8.30;;;11.70;99.90;;;;;;5084414;28;20098;-70
2023/10/27 11:02:01;;;;;;;13.57;9.52;;;11.70;99.90;;;;;;5071654;28;20048;-70
2023/10/27 11:04:31;;;;;;;13.02;9.15;;;11.80;99.90;;;;;;5080266;28;20556;-73
2023/10/27 11:07:02;;;;;;;14.00;9.52;;;11.90;99.90;;;;;;5074883;28;20044;-71
2023/10/27 11:09:28;;;;;;;14.07;9.70;;;11.90;99.90;;;;;;5085632;28;20048;-72
2023/10/27 11:11:55;;;;;;;14.27;9.45;;;12.40;99.90;;;;;;5071362;28;20088;-72
2023/10/27 11:14:21;;;;;;;13.98;10.07;;;11.80;99.90;;;;;;5070693;28;20115;-72
2023/10/27 11:16:58;;;;;;;15.40;9.70;;;12.10;99.90;;;;;;5071107;28;20086;-73
2023/10/27 11:19:24;;;;;;;15.27;10.63;;;11.80;99.90;;;;;;5075994;28;20072;-72
2023/10/27 11:21:55;;;;;;;14.75;9.93;;;11.80;99.90;;;;;;5090003;28;20098;-72
2023/10/27 11:24:23;;;;;;;15.60;10.25;;;11.80;99.90;;;;;;5089932;28;20111;-73
2023/10/27 11:26:49;;;;;;;13.57;9.68;;;11.80;99.90;;;;;;5090467;28;20438;-74
2023/10/27 11:29:15;;;;;;;15.15;10.65;;;11.70;99.90;;;;;;5074432;28;20437;-74
2023/10/27 11:31:42;;;;;;;14.30;9.90;;;12.20;99.90;;;;;;5081698;28;20052;-73
2023/10/27 11:34:08;;;;;;;15.10;10.45;;;11.80;99.90;;;;;;5073292;28;20040;-73
2023/10/27 11:36:42;;;;;;;14.82;9.98;;;11.80;99.90;;;;;;5075120;28;20048;-72
2023/10/27 11:39:18;;;;;;;13.43;9.63;;;11.80;99.90;;;;;;5071160;28;20044;-72
2023/10/27 11:42:00;;;;;;;14.48;9.73;;;11.70;99.90;;;;;;5079164;28;20070;-73
2023/10/27 11:44:31;;;;;;;15.80;10.75;;;11.70;99.90;;;;;;5087405;28;20068;-73
2023/10/27 11:46:58;;;;;;;17.08;9.75;;;11.70;99.90;;;;;;5089577;28;20085;-73
2023/10/27 11:49:25;;;;;;;16.15;11.43;;;11.80;99.90;;;;;;5090310;28;20056;-72
2023/10/27 11:51:53;;;;;;;15.27;9.70;;;11.70;99.90;;;;;;5085835;28;20044;-72
2023/10/27 11:54:25;;;;;;;15.90;10.98;;;11.70;99.90;;;;;;5069799;28;20040;-71
2023/10/27 11:56:52;;;;;;;16.52;11.30;;;11.70;99.90;;;;;;5089481;28;20454;-73
2023/10/27 11:59:19;;;;;;;16.45;11.30;;;11.70;99.90;;;;;;5091824;28;20048;-69
2023/10/27 12:01:45;;;;;;;17.52;10.60;;;12.10;99.90;;;;;;5091312;28;20048;-70
2023/10/27 12:04:11;;;;;;;15.27;10.43;;;11.60;99.90;;;;;;5089020;28;20511;-69
2023/10/27 12:06:38;;;;;;;16.65;11.15;;;11.70;99.90;;;;;;5090759;28;20066;-70
2023/10/27 12:09:04;;;;;;;16.38;10.48;;;11.60;99.90;;;;;;5088714;28;20131;-70
2023/10/27 12:11:30;;;;;;;20.55;13.90;;;11.60;99.90;;;;;;5091068;28;20127;-70
2023/10/27 12:13:56;;;;;;;16.77;10.50;;;11.60;99.90;;;;;;5092957;28;20048;-70
2023/10/27 12:16:22;;;;;;;15.80;10.40;;;11.60;99.90;;;;;;5092484;28;20059;-70
2023/10/27 12:18:48;;;;;;;16.27;11.25;;;11.60;99.90;;;;;;5090722;28;20483;-70
2023/10/27 12:21:14;;;;;;;16.35;11.23;;;11.90;99.90;;;;;;5091403;28;20043;-70
2023/10/27 12:23:40;;;;;;;16.50;11.45;;;11.60;99.90;;;;;;5091374;28;20505;-70
2023/10/27 12:26:07;;;;;;;19.65;12.02;;;12.00;99.90;;;;;;5090092;28;20050;-70
2023/10/27 12:28:33;;;;;;;18.70;11.70;;;11.50;99.90;;;;;;5090115;28;20583;-70
2023/10/27 12:31:00;;;;;;;16.50;11.05;;;11.50;99.90;;;;;;5092056;28;20051;-70
2023/10/27 12:33:26;;;;;;;18.48;11.73;;;11.50;99.90;;;;;;5091265;28;20429;-70
2023/10/27 12:35:52;;;;;;;17.63;11.57;;;11.50;99.90;;;;;;5091934;28;20032;-70
2023/10/27 12:38:18;;;;;;;19.40;12.73;;;11.50;99.90;;;;;;5090873;28;20089;-70